Time;durP1;ratioP1;P1;durP2;ratioP2;P2;SDS_P1;SDS_P2;PMS_P1;PMS_P2;Temp;Humidity;BMP_temperature;BMP_pressure;BME280_temperature;BME280_humidity;BME280_pressure;Samples;Min_cycle;Max_cycle;Signal;HPM_P1;HPM_P2
2023/01/10 00:00:36;;;;;;;11.45;5.53;;;;;;;4.79;81.48;100426.13;4986536;28;20118;-55
2023/01/10 00:03:03;;;;;;;10.68;4.95;;;;;;;4.79;81.13;100420.91;4989472;28;20114;-61
2023/01/10 00:05:29;;;;;;;7.25;5.00;;;;;;;4.83;81.49;100432.94;4987352;28;20122;-61
2023/01/10 00:07:54;;;;;;;8.43;5.15;;;;;;;4.91;81.07;100434.41;4980230;28;20091;-58
2023/01/10 00:10:20;;;;;;;8.80;5.13;;;;;;;4.96;81.02;100437.66;4982931;28;20155;-53
2023/01/10 00:15:34;;;;;;;11.95;5.15;;;;;;;5.06;80.62;100415.56;4986057;28;20109;-54
2023/01/10 00:18:00;;;;;;;7.63;4.85;;;;;;;5.10;80.69;100422.31;4976998;28;20431;-55
2023/01/10 00:20:25;;;;;;;6.50;3.17;;;;;;;5.10;80.69;100419.72;4987475;28;20093;-56
2023/01/10 00:22:51;;;;;;;9.95;4.40;;;;;;;5.09;80.31;100428.44;4987109;28;20110;-57
2023/01/10 00:25:20;;;;;;;9.85;5.10;;;;;;;5.08;80.62;100420.69;4983965;28;20557;-61
2023/01/10 00:27:54;;;;;;;8.52;4.53;;;;;;;5.08;80.97;100426.75;4986419;28;20075;-59
2023/01/10 00:30:19;;;;;;;8.55;4.72;;;;;;;5.13;80.83;100432.63;4977653;28;20094;-59
2023/01/10 00:32:45;;;;;;;8.70;4.40;;;;;;;5.17;80.45;100434.22;4976552;28;20083;-53
2023/01/10 00:35:11;;;;;;;8.45;4.70;;;;;;;5.22;80.66;100438.41;4988264;28;20110;-54
2023/01/10 00:37:38;;;;;;;8.27;4.28;;;;;;;5.25;80.61;100441.75;4982947;28;20557;-53
2023/01/10 00:40:08;;;;;;;8.20;4.50;;;;;;;5.28;80.31;100441.63;4979681;28;20145;-60
2023/01/10 00:45:21;;;;;;;8.07;5.03;;;;;;;5.21;80.34;100442.75;4983532;28;20113;-55
2023/01/10 00:47:47;;;;;;;9.57;4.47;;;;;;;5.16;80.59;100450.78;4980877;28;20078;-53
2023/01/10 00:50:13;;;;;;;9.93;4.97;;;;;;;5.12;80.44;100448.34;4984919;28;20454;-57
2023/01/10 00:52:38;;;;;;;7.90;4.32;;;;;;;5.09;80.81;100459.75;4987615;28;20083;-55
2023/01/10 00:55:04;;;;;;;9.35;5.03;;;;;;;5.01;80.89;100467.03;4974050;28;20098;-65
2023/01/10 00:57:29;;;;;;;8.23;5.15;;;;;;;4.90;80.76;100467.44;4983157;28;20102;-54
2023/01/10 00:59:55;;;;;;;10.75;5.20;;;;;;;4.79;81.16;100473.06;4988578;28;20094;-53
2023/01/10 01:02:20;;;;;;;13.77;5.20;;;;;;;4.69;81.40;100476.94;4988878;28;20091;-55
2023/01/10 01:04:46;;;;;;;12.85;5.55;;;;;;;4.58;81.63;100482.53;4990592;28;20114;-53
2023/01/10 01:07:12;;;;;;;10.35;5.07;;;;;;;4.48;81.38;100484.63;4989384;28;20539;-53
2023/01/10 01:10:25;;;;;;;8.80;4.75;;;;;;;4.41;81.56;100489.22;4989016;28;20589;-53
2023/01/10 01:12:23;;;;;;;9.40;4.97;;;;;;;4.38;81.83;100493.69;4985066;28;20542;-54
2023/01/10 01:14:48;;;;;;;10.35;4.45;;;;;;;4.33;81.98;100500.81;4985206;28;20141;-53
2023/01/10 01:17:14;;;;;;;10.20;4.85;;;;;;;4.30;81.94;100511.34;4988566;28;20079;-54
2023/01/10 01:19:40;;;;;;;11.65;5.15;;;;;;;4.30;81.93;100506.97;4985404;28;20162;-60
2023/01/10 01:22:05;;;;;;;12.05;5.15;;;;;;;4.29;82.23;100515.69;4987315;28;20794;-54
2023/01/10 01:24:31;;;;;;;9.73;5.03;;;;;;;4.32;81.99;100515.59;4988428;28;20222;-53
2023/01/10 01:26:56;;;;;;;8.02;4.88;;;;;;;4.34;82.11;100519.00;4984187;28;20102;-53
2023/01/10 01:29:23;;;;;;;9.68;5.03;;;;;;;4.37;81.84;100515.44;4984577;28;20117;-53
2023/01/10 01:31:49;;;;;;;12.30;5.78;;;;;;;4.41;82.00;100524.84;4988445;28;20082;-54
2023/01/10 01:34:15;;;;;;;9.05;5.03;;;;;;;4.43;81.97;100523.03;4985557;28;20082;-53
2023/01/10 01:36:40;;;;;;;9.23;5.15;;;;;;;4.47;82.53;100531.59;4983800;28;20101;-53
2023/01/10 01:39:05;;;;;;;9.45;5.18;;;;;;;4.53;82.46;100536.59;4983820;28;20085;-62
2023/01/10 01:44:17;;;;;;;12.63;5.80;;;;;;;4.64;82.29;100557.91;4982254;28;20078;-53
2023/01/10 01:46:52;;;;;;;10.20;5.45;;;;;;;4.70;82.57;100562.03;4984255;28;20106;-53
2023/01/10 01:49:20;;;;;;;13.07;6.20;;;;;;;4.75;82.52;100565.34;4984811;28;20078;-56
2023/01/10 01:51:56;;;;;;;12.02;5.80;;;;;;;4.85;82.69;100571.91;4987136;28;20082;-56
2023/01/10 01:54:22;;;;;;;11.25;5.85;;;;;;;4.96;82.23;100581.09;4986569;28;20104;-55
2023/01/10 01:56:55;;;;;;;10.00;4.90;;;;;;;5.03;81.99;100580.81;4989939;28;24746;-55
2023/01/10 01:59:23;;;;;;;8.63;5.13;;;;;;;5.08;82.19;100585.84;4984760;28;20087;-54
2023/01/10 02:01:54;;;;;;;11.63;6.07;;;;;;;5.14;82.36;100583.00;4990936;28;20487;-59
2023/01/10 02:04:28;;;;;;;10.23;5.15;;;;;;;5.25;82.29;100586.97;4990371;28;20075;-58
2023/01/10 02:06:56;;;;;;;12.25;5.53;;;;;;;5.37;82.21;100594.31;4977391;28;20080;-57
2023/01/10 02:09:27;;;;;;;11.25;5.18;;;;;;;5.44;82.06;100598.41;4984435;28;20089;-54
2023/01/10 02:11:54;;;;;;;12.55;6.30;;;;;;;5.51;81.49;100593.78;4983892;28;20082;-58
2023/01/10 02:14:23;;;;;;;11.60;6.35;;;;;;;5.55;81.74;100598.00;4977176;28;20148;-58
2023/01/10 02:16:49;;;;;;;13.15;5.88;;;;;;;5.62;81.88;100598.59;4982176;28;20105;-57
2023/01/10 02:19:35;;;;;;;10.45;5.28;;;;;;;5.64;81.84;100605.47;4987341;28;20075;-53
2023/01/10 02:22:25;;;;;;;8.77;5.78;;;;;;;5.67;81.57;100607.13;4985854;28;20453;-54
2023/01/10 02:24:56;;;;;;;9.48;6.00;;;;;;;5.72;81.98;100615.59;4981050;28;20148;-55
2023/01/10 02:27:26;;;;;;;10.20;5.88;;;;;;;5.73;81.76;100617.31;4988749;28;20134;-56
2023/01/10 02:29:57;;;;;;;10.27;6.05;;;;;;;5.78;81.62;100614.50;4987932;28;20087;-55
2023/01/10 02:32:34;;;;;;;12.52;6.18;;;;;;;5.82;81.73;100620.47;4989673;28;20090;-54
2023/01/10 02:35:27;;;;;;;11.88;6.53;;;;;;;5.87;81.55;100621.97;4986702;28;20086;-55
2023/01/10 02:38:07;;;;;;;10.38;5.88;;;;;;;5.91;81.97;100622.69;4987027;28;20485;-57
2023/01/10 02:41:08;;;;;;;12.43;7.60;;;;;;;5.92;81.40;100613.97;4981128;28;20164;-62
2023/01/10 02:43:40;;;;;;;11.60;6.35;;;;;;;5.89;81.92;100628.00;4981344;28;20078;-59
2023/01/10 02:46:11;;;;;;;10.93;6.30;;;;;;;5.85;81.76;100626.41;4988026;28;20090;-58
2023/01/10 02:48:36;;;;;;;14.73;7.05;;;;;;;5.80;81.66;100631.81;4986169;28;20082;-54
2023/01/10 02:51:37;;;;;;;13.23;6.13;;;;;;;5.76;82.11;100635.47;4988035;28;20085;-63
2023/01/10 02:54:11;;;;;;;11.73;6.22;;;;;;;5.83;82.23;100637.81;4982831;28;20083;-58
2023/01/10 02:56:48;;;;;;;14.25;6.68;;;;;;;5.89;82.18;100640.19;4986725;28;20529;-57
2023/01/10 02:59:25;;;;;;;14.32;6.55;;;;;;;5.96;81.93;100646.88;4989464;28;20078;-53
2023/01/10 03:02:00;;;;;;;13.10;6.60;;;;;;;6.00;82.06;100645.84;4985653;28;20086;-55
2023/01/10 03:04:25;;;;;;;14.32;7.00;;;;;;;6.05;82.07;100651.75;4984923;28;20094;-55
2023/01/10 03:07:17;;;;;;;13.85;6.65;;;;;;;6.10;81.96;100654.19;4985337;28;20113;-55
2023/01/10 03:09:51;;;;;;;12.38;7.22;;;;;;;6.16;81.75;100663.53;4985457;28;20153;-59
2023/01/10 03:12:43;;;;;;;14.48;7.22;;;;;;;6.18;81.56;100669.56;4984665;28;20074;-56
2023/01/10 03:15:14;;;;;;;11.98;7.65;;;;;;;6.23;81.39;100678.06;4982382;28;20114;-54
2023/01/10 03:17:44;;;;;;;14.32;7.25;;;;;;;6.26;81.71;100683.16;4984067;28;20074;-58
2023/01/10 03:20:10;;;;;;;14.40;6.88;;;;;;;6.27;81.49;100684.88;4986587;28;20109;-58
2023/01/10 03:22:38;;;;;;;14.80;6.43;;;;;;;6.29;81.38;100690.03;4985630;28;20114;-58
2023/01/10 03:25:07;;;;;;;10.30;6.45;;;;;;;6.32;81.26;100682.06;4981632;28;20086;-57
2023/01/10 03:27:56;;;;;;;13.82;6.80;;;;;;;6.34;80.94;100690.69;4973022;28;20087;-58
2023/01/10 03:30:40;;;;;;;14.05;6.65;;;;;;;6.31;81.11;100699.50;4980176;28;20074;-57
2023/01/10 03:33:06;;;;;;;13.63;7.18;;;;;;;6.31;81.05;100699.50;4986396;28;20079;-56
2023/01/10 03:35:56;;;;;;;13.20;6.57;;;;;;;6.31;81.05;100702.09;4984828;28;20469;-58
2023/01/10 03:38:42;;;;;;;11.95;7.28;;;;;;;6.29;81.16;100706.53;4981525;28;20560;-56
2023/01/10 03:41:17;;;;;;;13.43;6.20;;;;;;;6.29;81.28;100714.38;4988929;28;20093;-55
2023/01/10 03:47:01;;;;;;;13.85;5.85;;;;;;;6.29;80.89;100730.06;4979900;28;20738;-56
2023/01/10 03:49:28;;;;;;;10.80;5.43;;;;;;;6.30;81.05;100737.00;4987070;28;20089;-54
2023/01/10 03:51:57;;;;;;;8.85;6.00;;;;;;;6.32;80.84;100750.84;4985221;28;20090;-56
2023/01/10 03:54:22;;;;;;;10.40;6.65;;;;;;;6.33;80.73;100752.56;4988901;28;20079;-56
2023/01/10 03:56:50;;;;;;;10.10;5.70;;;;;;;6.33;80.58;100757.78;4986538;28;20654;-55
2023/01/10 03:59:19;;;;;;;10.10;6.13;;;;;;;6.36;80.81;100767.25;4991549;28;20075;-55
2023/01/10 04:01:44;;;;;;;12.65;6.05;;;;;;;6.37;80.76;100764.59;4986303;28;20141;-56
2023/01/10 04:04:10;;;;;;;13.60;6.45;;;;;;;6.40;80.73;100780.16;4978405;28;20082;-56
2023/01/10 04:06:35;;;;;;;10.40;5.63;;;;;;;6.42;80.37;100792.31;4981211;28;20165;-56
2023/01/10 04:09:01;;;;;;;12.13;6.65;;;;;;;6.43;80.41;100791.41;4985729;28;20102;-56
2023/01/10 04:11:27;;;;;;;10.80;5.95;;;;;;;6.43;80.40;100788.78;4991776;28;20522;-55
2023/01/10 04:13:52;;;;;;;15.05;7.53;;;;;;;6.43;80.55;100794.03;4979734;28;20121;-56
2023/01/10 04:16:19;;;;;;;11.98;6.82;;;;;;;6.43;80.69;100794.03;4985160;28;20700;-58
2023/01/10 04:18:44;;;;;;;14.63;7.10;;;;;;;6.42;80.26;100808.84;4987086;28;20102;-57
2023/01/10 04:21:10;;;;;;;14.68;7.43;;;;;;;6.45;80.11;100815.69;4987282;28;20087;-57
2023/01/10 04:23:36;;;;;;;14.73;6.97;;;;;;;6.42;80.52;100821.06;4978644;28;20129;-55
2023/01/10 04:26:01;;;;;;;11.73;6.82;;;;;;;6.42;80.36;100828.91;4983228;28;20688;-55
2023/01/10 04:28:27;;;;;;;16.83;7.88;;;;;;;6.42;80.11;100837.59;4985027;28;20090;-58
2023/01/10 04:30:52;;;;;;;15.07;8.07;;;;;;;6.44;80.01;100845.38;4985843;28;20101;-58
2023/01/10 04:33:18;;;;;;;14.60;7.55;;;;;;;6.44;79.95;100853.22;4985991;28;20079;-59
2023/01/10 04:35:48;;;;;;;14.15;7.30;;;;;;;6.42;80.40;100862.91;4985822;28;20182;-57
2023/01/10 04:38:14;;;;;;;14.73;7.43;;;;;;;6.40;80.05;100869.03;4991900;28;20078;-55
2023/01/10 04:40:40;;;;;;;15.10;6.82;;;;;;;6.39;80.41;100864.72;4983791;28;20121;-55
2023/01/10 04:43:05;;;;;;;18.73;8.70;;;;;;;6.40;79.97;100876.00;4991210;28;20078;-58
2023/01/10 04:45:31;;;;;;;14.00;7.93;;;;;;;6.36;80.11;100870.06;4990252;28;20098;-56
2023/01/10 04:47:58;;;;;;;15.45;7.85;;;;;;;6.33;80.14;100885.00;4990950;28;20083;-59
2023/01/10 04:50:24;;;;;;;15.70;8.43;;;;;;;6.34;79.95;100898.00;4991787;28;20070;-57
2023/01/10 04:52:49;;;;;;;14.85;8.05;;;;;;;6.34;80.09;100900.63;4989792;28;20453;-59
2023/01/10 04:55:15;;;;;;;13.43;7.68;;;;;;;6.34;79.91;100910.22;4995098;28;20099;-61
2023/01/10 04:57:41;;;;;;;15.05;7.30;;;;;;;6.24;79.86;100915.78;4978865;28;20568;-60
2023/01/10 05:00:08;;;;;;;14.50;7.40;;;;;;;6.15;79.94;100926.59;4987295;28;20099;-58
2023/01/10 05:02:33;;;;;;;17.58;7.47;;;;;;;6.05;80.27;100928.66;4988362;28;20094;-58
2023/01/10 05:04:59;;;;;;;13.63;7.30;;;;;;;6.01;80.58;100928.84;4991391;28;20091;-56
2023/01/10 05:07:24;;;;;;;13.18;7.13;;;;;;;6.02;80.05;100935.78;4983703;28;20071;-58
2023/01/10 05:09:50;;;;;;;8.73;4.60;;;;;;;6.03;80.01;100942.72;4990440;28;20153;-56
2023/01/10 05:12:15;;;;;;;13.30;6.78;;;;;;;6.07;79.74;100950.38;4990385;28;20067;-57
2023/01/10 05:14:41;;;;;;;13.90;7.43;;;;;;;6.09;79.93;100951.19;4992222;28;20117;-58
2023/01/10 05:17:06;;;;;;;17.08;7.55;;;;;;;6.13;79.61;100961.50;4990381;28;20082;-54
2023/01/10 05:19:32;;;;;;;13.45;8.02;;;;;;;6.15;79.87;100962.28;4986157;28;20169;-60
2023/01/10 05:21:57;;;;;;;15.93;6.82;;;;;;;6.19;79.86;100958.69;4989989;28;20134;-56
2023/01/10 05:24:23;;;;;;;14.65;7.55;;;;;;;6.19;79.46;100969.13;4975275;28;20209;-57
2023/01/10 05:26:48;;;;;;;17.00;7.95;;;;;;;6.19;79.62;100977.84;4983811;28;20098;-60
2023/01/10 05:29:14;;;;;;;12.93;7.00;;;;;;;6.21;79.38;100972.53;4992018;28;20502;-59
2023/01/10 05:31:40;;;;;;;14.27;8.27;;;;;;;6.22;79.54;100988.16;4975985;28;20157;-56
2023/01/10 05:34:05;;;;;;;15.57;7.80;;;;;;;6.24;79.41;100980.28;4985073;28;20070;-58
2023/01/10 05:36:31;;;;;;;19.45;8.52;;;;;;;6.22;79.57;100984.69;4975114;28;20108;-59
2023/01/10 05:38:57;;;;;;;16.55;8.02;;;;;;;6.25;79.72;100985.44;4974961;28;21763;-58
2023/01/10 05:41:22;;;;;;;15.20;8.30;;;;;;;6.27;79.13;100998.47;4973390;28;20102;-57
2023/01/10 05:43:48;;;;;;;13.25;6.97;;;;;;;6.29;79.35;100999.25;4970579;28;20161;-57
2023/01/10 05:46:14;;;;;;;15.20;7.28;;;;;;;6.31;79.02;100999.19;4981787;28;20153;-58
2023/01/10 05:48:40;;;;;;;14.80;7.80;;;;;;;6.33;79.53;101013.91;4980272;28;20177;-58
2023/01/10 05:51:05;;;;;;;14.27;8.20;;;;;;;6.35;79.01;101012.09;4980643;28;20107;-56
2023/01/10 05:53:31;;;;;;;15.32;7.35;;;;;;;6.37;79.11;101022.50;4980853;28;20083;-59
2023/01/10 05:56:01;;;;;;;14.82;8.25;;;;;;;6.37;79.25;101015.50;4978273;28;20189;-57
2023/01/10 05:58:28;;;;;;;18.25;9.00;;;;;;;6.38;79.42;101029.44;4983626;28;20078;-58
2023/01/10 06:00:55;;;;;;;14.88;7.97;;;;;;;6.38;79.45;101027.69;4982168;28;20090;-58
2023/01/10 06:03:21;;;;;;;13.35;7.47;;;;;;;6.36;79.37;101034.72;4983093;28;20205;-62
2023/01/10 06:05:46;;;;;;;16.40;7.72;;;;;;;6.35;79.64;101038.25;4984668;28;20134;-60
2023/01/10 06:08:12;;;;;;;15.35;8.30;;;;;;;6.33;79.66;101047.88;4987455;28;20572;-59
2023/01/10 06:10:37;;;;;;;18.65;8.45;;;;;;;6.37;79.60;101052.09;4990499;28;20083;-56
2023/01/10 06:13:08;;;;;;;15.60;7.95;;;;;;;6.36;79.61;101060.84;4988357;28;20756;-57
2023/01/10 06:15:34;;;;;;;15.50;7.47;;;;;;;6.37;79.74;101059.94;4993451;28;20091;-62
2023/01/10 06:18:00;;;;;;;15.23;8.15;;;;;;;6.37;79.63;101067.78;4987657;28;20521;-56
2023/01/10 06:20:25;;;;;;;15.70;8.10;;;;;;;6.38;79.56;101079.97;4989189;28;20570;-60
2023/01/10 06:22:51;;;;;;;13.45;7.00;;;;;;;6.38;79.75;101084.31;4991377;28;20091;-55
2023/01/10 06:25:20;;;;;;;11.07;7.15;;;;;;;6.38;79.85;101085.19;5009867;23;20815;-64
2023/01/10 06:27:46;;;;;;;15.45;7.82;;;;;;;6.39;79.87;101091.25;4966080;28;20098;-64
2023/01/10 06:30:13;;;;;;;18.65;8.30;;;;;;;6.38;79.48;101095.63;4966181;28;20083;-65
2023/01/10 06:32:39;;;;;;;15.30;7.70;;;;;;;6.38;79.73;101103.47;4960732;28;20103;-65
2023/01/10 06:35:05;;;;;;;19.23;9.13;;;;;;;6.39;79.97;101107.81;4955201;28;20099;-62
2023/01/10 06:37:31;;;;;;;14.45;8.65;;;;;;;6.42;79.98;101119.91;4955112;28;20086;-65
2023/01/10 06:39:56;;;;;;;11.63;6.20;;;;;;;6.43;79.67;101124.22;4958117;28;20099;-63
2023/01/10 06:42:22;;;;;;;17.30;9.38;;;;;;;6.46;79.47;101128.50;4965971;28;20095;-63
2023/01/10 06:44:47;;;;;;;16.88;9.43;;;;;;;6.48;79.40;101140.63;4955617;28;20131;-61
2023/01/10 06:47:13;;;;;;;18.15;9.90;;;;;;;6.48;79.69;101137.13;4952756;28;20079;-65
2023/01/10 06:49:38;;;;;;;18.98;8.98;;;;;;;6.49;79.47;101144.06;4953327;28;20135;-64
2023/01/10 06:52:04;;;;;;;18.98;9.57;;;;;;;6.47;79.76;101136.31;4954628;28;20099;-63
2023/01/10 06:54:29;;;;;;;22.73;11.20;;;;;;;6.47;79.93;101144.16;4953724;28;20458;-60
2023/01/10 06:56:55;;;;;;;19.35;9.60;;;;;;;6.48;79.61;101144.97;4954812;28;20131;-65
2023/01/10 06:59:20;;;;;;;18.83;8.80;;;;;;;6.47;79.83;101151.13;4954231;28;20184;-64
2023/01/10 07:01:46;;;;;;;16.20;8.85;;;;;;;6.47;79.70;101145.88;4944871;28;20099;-61
2023/01/10 07:04:11;;;;;;;17.38;8.35;;;;;;;6.48;79.48;101148.47;4948399;28;20895;-65
2023/01/10 07:06:38;;;;;;;12.27;5.60;;;;;;;6.49;79.54;101154.53;4947157;28;20096;-64
2023/01/10 07:09:04;;;;;;;17.20;9.30;;;;;;;6.52;79.52;101147.44;4942614;28;20075;-65
2023/01/10 07:11:30;;;;;;;19.77;8.30;;;;;;;6.53;79.71;101156.16;4956220;28;20083;-63
2023/01/10 07:13:56;;;;;;;10.68;6.45;;;;;;;6.50;79.34;101164.09;4950467;28;20076;-64
2023/01/10 07:16:22;;;;;;;19.65;8.95;;;;;;;6.50;79.57;101166.72;4951182;28;20111;-63
2023/01/10 07:18:48;;;;;;;17.73;9.32;;;;;;;6.46;79.54;101179.03;4941058;28;20579;-65
2023/01/10 07:21:15;;;;;;;19.10;9.10;;;;;;;6.43;79.44;101180.91;4947907;28;20211;-63
2023/01/10 07:23:42;;;;;;;16.77;8.63;;;;;;;6.37;79.78;101188.03;4953426;28;20083;-64
2023/01/10 07:26:10;;;;;;;18.75;9.68;;;;;;;6.36;80.14;101185.44;4947688;28;20519;-65
2023/01/10 07:28:36;;;;;;;19.80;9.25;;;;;;;6.34;80.21;101188.13;4967706;28;20084;-65
2023/01/10 07:31:04;;;;;;;17.38;8.93;;;;;;;6.35;80.12;101195.06;4950269;28;20098;-64
2023/01/10 07:33:30;;;;;;;18.85;9.80;;;;;;;6.36;80.03;101195.91;4964673;28;20076;-63
2023/01/10 07:35:57;;;;;;;20.70;9.43;;;;;;;6.39;79.94;101203.66;4949552;28;20123;-59
2023/01/10 07:38:22;;;;;;;21.77;11.27;;;;;;;6.42;80.08;101205.34;4938892;28;20127;-60
2023/01/10 07:40:48;;;;;;;19.35;10.40;;;;;;;6.43;80.18;101214.88;4947827;28;20186;-61
2023/01/10 07:43:13;;;;;;;17.50;9.52;;;;;;;6.39;80.24;101217.59;4950775;28;20083;-61
2023/01/10 07:45:39;;;;;;;19.02;9.80;;;;;;;6.39;80.14;101224.56;4941456;28;20104;-65
2023/01/10 07:48:05;;;;;;;22.50;10.80;;;;;;;6.39;80.19;101233.28;4938543;28;20095;-65
2023/01/10 07:50:33;;;;;;;17.92;10.35;;;;;;;6.40;80.17;101237.59;4948743;28;20572;-63
2023/01/10 07:53:00;;;;;;;21.48;10.57;;;;;;;6.44;80.54;101240.09;4945729;28;20091;-63
2023/01/10 07:55:26;;;;;;;18.80;9.77;;;;;;;6.45;80.44;101242.69;4960082;28;20095;-63
2023/01/10 07:57:52;;;;;;;21.30;8.30;;;;;;;6.49;80.68;101253.88;4948609;28;20080;-63
2023/01/10 08:00:18;;;;;;;19.38;9.07;;;;;;;6.52;80.22;101259.03;4949597;28;20111;-62
2023/01/10 08:02:44;;;;;;;20.05;9.65;;;;;;;6.54;80.23;101249.38;4945581;28;20091;-64
2023/01/10 08:05:10;;;;;;;20.17;9.50;;;;;;;6.58;80.04;101257.97;4950717;28;20511;-63
2023/01/10 08:07:35;;;;;;;19.00;9.10;;;;;;;6.58;80.38;101264.03;4958614;28;20080;-63
2023/01/10 08:10:01;;;;;;;19.27;10.82;;;;;;;6.63;80.22;101271.75;4943542;28;20068;-65
2023/01/10 08:12:27;;;;;;;13.30;8.00;;;;;;;6.67;79.87;101275.94;4947000;28;20083;-64
2023/01/10 08:14:53;;;;;;;16.35;7.65;;;;;;;6.67;80.19;101282.06;4949036;28;20115;-64
2023/01/10 08:17:18;;;;;;;15.48;7.90;;;;;;;6.69;79.82;101290.72;4940014;28;20110;-63
2023/01/10 08:19:44;;;;;;;16.23;8.32;;;;;;;6.72;79.94;101287.13;4938904;28;20486;-65
2023/01/10 08:22:11;;;;;;;16.52;6.82;;;;;;;6.74;79.79;101287.06;4946293;28;20119;-64
2023/01/10 08:24:36;;;;;;;12.68;6.60;;;;;;;6.79;79.90;101287.78;4943051;28;20170;-64
2023/01/10 08:27:02;;;;;;;18.05;7.38;;;;;;;6.83;79.42;101285.00;4935639;28;20096;-64
2023/01/10 08:29:28;;;;;;;11.60;5.97;;;;;;;6.88;79.45;101297.97;4944524;28;20093;-62
2023/01/10 08:31:53;;;;;;;14.60;6.82;;;;;;;6.90;79.40;101296.13;4946011;28;20695;-61
2023/01/10 08:34:19;;;;;;;14.88;8.15;;;;;;;6.93;78.96;101298.63;4952824;28;20172;-63
2023/01/10 08:36:48;;;;;;;15.65;7.30;;;;;;;6.94;78.91;101297.72;4943216;28;20127;-62
2023/01/10 08:39:14;;;;;;;12.55;6.05;;;;;;;6.96;78.88;101308.13;4950910;28;20076;-60
2023/01/10 08:41:40;;;;;;;16.20;6.60;;;;;;;6.94;78.90;101308.19;4942834;28;20446;-64
2023/01/10 08:44:05;;;;;;;11.15;6.10;;;;;;;6.95;78.88;101311.69;4946376;28;20135;-63
2023/01/10 08:46:31;;;;;;;17.42;6.45;;;;;;;6.97;78.84;101313.34;4944528;28;20102;-65
2023/01/10 08:48:56;;;;;;;14.52;7.05;;;;;;;6.97;79.07;101313.34;4949528;28;20110;-64
2023/01/10 08:51:22;;;;;;;16.05;6.43;;;;;;;6.99;78.88;101315.88;4948795;28;20094;-65
2023/01/10 08:53:47;;;;;;;15.00;6.45;;;;;;;7.00;78.73;101323.72;4950985;28;20079;-64
2023/01/10 08:56:13;;;;;;;18.10;7.28;;;;;;;7.00;78.76;101315.84;4949295;28;20158;-65
2023/01/10 08:58:38;;;;;;;13.05;6.63;;;;;;;7.04;79.13;101320.97;4944292;28;20084;-66
2023/01/10 09:01:05;;;;;;;13.93;6.05;;;;;;;7.05;78.97;101335.75;4941909;28;20551;-65
2023/01/10 09:03:31;;;;;;;16.45;6.63;;;;;;;7.06;79.11;101335.72;4951742;28;20091;-64
2023/01/10 09:06:00;;;;;;;13.90;6.38;;;;;;;7.11;79.03;101338.19;4953368;28;20108;-65
2023/01/10 09:08:26;;;;;;;11.85;5.82;;;;;;;7.12;78.91;101340.72;4935959;28;21187;-63
2023/01/10 09:10:52;;;;;;;16.48;6.97;;;;;;;7.15;78.82;101345.88;4949657;28;20083;-63
2023/01/10 09:13:27;;;;;;;20.10;6.00;;;;;;;7.20;78.71;101350.09;4941178;28;20138;-69
2023/01/10 09:15:53;;;;;;;12.98;6.07;;;;;;;7.23;78.92;101348.22;4926972;28;20112;-62
2023/01/10 09:18:19;;;;;;;18.30;6.68;;;;;;;7.28;78.74;101356.78;4948958;28;20075;-65
2023/01/10 09:20:45;;;;;;;11.45;5.10;;;;;;;7.30;78.29;101354.97;4945295;28;20099;-64
2023/01/10 09:23:18;;;;;;;11.07;5.57;;;;;;;7.34;78.22;101355.72;4959397;28;20088;-66
2023/01/10 09:25:45;;;;;;;14.20;5.93;;;;;;;7.40;78.25;101366.00;4948253;28;20456;-66
2023/01/10 09:28:11;;;;;;;10.57;4.68;;;;;;;7.46;77.66;101362.31;4953294;28;20082;-60
2023/01/10 09:30:37;;;;;;;14.38;5.28;;;;;;;7.50;77.67;101374.38;4951267;28;20080;-67
2023/01/10 09:33:04;;;;;;;8.82;4.40;;;;;;;7.51;77.32;101376.06;4940457;28;20082;-60
2023/01/10 09:35:31;;;;;;;13.10;4.50;;;;;;;7.53;77.20;101383.91;4951285;28;20107;-63
2023/01/10 09:37:59;;;;;;;10.55;4.32;;;;;;;7.54;76.93;101386.44;4950428;28;20071;-65
2023/01/10 09:40:53;;;;;;;19.13;5.20;;;;;;;7.53;76.92;101384.75;4937164;28;20095;-66
2023/01/10 09:43:36;;;;;;;12.30;4.82;;;;;;;7.56;76.53;101383.81;4951805;28;20084;-65
2023/01/10 09:46:08;;;;;;;12.15;5.20;;;;;;;7.57;76.33;101380.25;4949275;28;20145;-62
2023/01/10 09:49:12;;;;;;;13.35;4.43;;;;;;;7.59;76.53;101381.06;4944359;28;20083;-63
2023/01/10 09:51:42;;;;;;;9.00;4.38;;;;;;;7.57;76.39;101388.09;4950835;28;20071;-66
2023/01/10 09:54:30;;;;;;;8.43;4.85;;;;;;;7.53;76.48;101391.75;4955247;28;20091;-63
2023/01/10 09:56:59;;;;;;;9.77;3.90;;;;;;;7.49;76.61;101404.06;4951619;28;20095;-63
2023/01/10 09:59:34;;;;;;;8.02;3.75;;;;;;;7.51;76.41;101389.16;4952269;28;20083;-62
2023/01/10 10:02:15;;;;;;;9.13;4.63;;;;;;;7.53;76.62;101386.53;4950056;28;20462;-62
2023/01/10 10:04:40;;;;;;;13.90;4.35;;;;;;;7.55;76.60;101390.78;4953541;28;20079;-61
2023/01/10 10:07:13;;;;;;;14.13;4.38;;;;;;;7.55;76.39;101388.16;4940337;28;20134;-63
2023/01/10 10:09:39;;;;;;;10.00;3.55;;;;;;;7.57;76.64;101396.84;4966355;28;20178;-66
2023/01/10 10:12:29;;;;;;;13.02;4.32;;;;;;;7.48;76.00;101391.91;4947741;28;20175;-62
2023/01/10 10:15:12;;;;;;;8.23;3.28;;;;;;;7.53;76.19;101395.22;4952095;28;20092;-61
2023/01/10 10:17:50;;;;;;;7.85;4.25;;;;;;;7.55;76.12;101403.03;4951066;28;20080;-62
2023/01/10 10:20:25;;;;;;;9.32;4.18;;;;;;;7.56;75.85;101399.50;4952989;28;20191;-62
2023/01/10 10:23:10;;;;;;;18.35;4.72;;;;;;;7.53;75.57;101402.22;4944054;28;20446;-63
2023/01/10 10:25:55;;;;;;;9.57;3.75;;;;;;;7.54;75.54;101396.09;4948654;28;20103;-65
2023/01/10 10:28:54;;;;;;;10.52;3.58;;;;;;;7.59;75.75;101410.72;4949143;28;20075;-59
2023/01/10 10:31:50;;;;;;;7.88;3.80;;;;;;;7.67;75.44;101404.34;4947114;28;20094;-65
2023/01/10 10:34:28;;;;;;;12.80;4.25;;;;;;;7.70;75.34;101417.34;4952224;28;20079;-64
2023/01/10 10:36:59;;;;;;;12.60;3.50;;;;;;;7.77;75.23;101421.47;4950736;28;20535;-62
2023/01/10 10:39:40;;;;;;;8.88;3.50;;;;;;;7.80;74.96;101418.72;4952660;28;20547;-64
2023/01/10 10:42:13;;;;;;;13.57;4.18;;;;;;;7.83;74.87;101428.28;4938017;28;20147;-66
2023/01/10 10:44:48;;;;;;;8.27;3.88;;;;;;;7.86;74.94;101415.91;4949822;28;20115;-65
2023/01/10 10:47:16;;;;;;;15.73;3.78;;;;;;;7.89;74.69;101412.31;4940461;28;20079;-60
2023/01/10 10:50:13;;;;;;;8.88;3.60;;;;;;;7.89;74.53;101417.56;4946378;28;20083;-63
2023/01/10 10:52:39;;;;;;;9.88;3.70;;;;;;;7.92;74.81;101418.31;4941517;28;20078;-60
2023/01/10 10:55:11;;;;;;;10.70;3.22;;;;;;;7.98;74.72;101421.63;4951810;28;20122;-64
2023/01/10 10:57:39;;;;;;;11.20;4.70;;;;;;;7.99;74.90;101423.31;4952407;28;20091;-63
2023/01/10 11:00:12;;;;;;;15.38;4.22;;;;;;;8.00;74.64;101431.16;4950772;28;20697;-62
2023/01/10 11:02:45;;;;;;;17.25;4.88;;;;;;;8.06;74.79;101432.69;4936728;28;20543;-63
2023/01/10 11:05:22;;;;;;;9.20;3.45;;;;;;;8.09;74.64;101424.72;4947915;28;20107;-65
2023/01/10 11:07:50;;;;;;;10.95;3.13;;;;;;;8.13;74.23;101428.91;4950779;28;20602;-64
2023/01/10 11:10:34;;;;;;;10.55;3.63;;;;;;;8.16;74.42;101436.69;4952761;28;20068;-61
2023/01/10 11:13:29;;;;;;;14.10;3.53;;;;;;;8.19;74.16;101443.56;4938034;28;20183;-62
2023/01/10 11:15:55;;;;;;;8.13;3.20;;;;;;;8.23;73.90;101438.19;4949965;28;20091;-62
2023/01/10 11:18:27;;;;;;;18.38;6.28;;;;;;;8.29;73.89;101446.72;4940787;28;20083;-63
2023/01/10 11:21:07;;;;;;;13.05;3.53;;;;;;;8.28;73.77;101452.88;4953753;28;20174;-62
2023/01/10 11:23:52;;;;;;;7.38;3.03;;;;;;;8.28;73.55;101460.72;4939797;28;20084;-62
2023/01/10 11:26:26;;;;;;;9.75;3.53;;;;;;;8.28;74.03;101461.59;4951883;28;20118;-63
2023/01/10 11:29:04;;;;;;;8.18;3.00;;;;;;;8.31;74.13;101463.25;4940132;28;20075;-62
2023/01/10 11:31:31;;;;;;;14.07;3.13;;;;;;;8.29;73.97;101473.81;4950709;28;20082;-63
2023/01/10 11:33:56;;;;;;;16.08;4.30;;;;;;;8.28;73.78;101477.34;4949578;28;20115;-62
2023/01/10 11:36:22;;;;;;;8.32;2.75;;;;;;;8.28;73.90;101476.47;4952450;28;20095;-64
2023/01/10 11:39:00;;;;;;;7.22;3.05;;;;;;;8.25;73.49;101477.44;4946676;28;20083;-63
2023/01/10 11:41:30;;;;;;;13.98;3.50;;;;;;;8.20;73.75;101480.22;4943696;28;20602;-64
2023/01/10 11:44:20;;;;;;;16.83;4.25;;;;;;;8.17;73.69;101469.84;4949677;28;20099;-62
2023/01/10 11:46:48;;;;;;;16.27;3.25;;;;;;;8.23;73.77;101479.25;4938134;28;20103;-62
2023/01/10 11:49:31;;;;;;;9.32;2.67;;;;;;;8.29;73.79;101478.19;4950762;28;20134;-63